createdAt,value
2023-10-23T00:01:11.479Z,100874.25
2023-10-23T00:03:38.150Z,100880.75
2023-10-23T00:06:04.717Z,100882.88
2023-10-23T00:08:31.210Z,100878.03
2023-10-23T00:10:57.672Z,100875.22
2023-10-23T00:13:24.128Z,100885.59
2023-10-23T00:15:50.598Z,100890.88
2023-10-23T00:18:17.190Z,100894.91
2023-10-23T00:20:43.630Z,100891.66
2023-10-23T00:23:10.152Z,100886.72
2023-10-23T00:25:36.600Z,100892.69
2023-10-23T00:28:03.131Z,100891.66
2023-10-23T00:30:33.277Z,100900.91
2023-10-23T00:32:59.879Z,100890.81
2023-10-23T00:35:26.411Z,100901.31
2023-10-23T00:37:52.889Z,100896.13
2023-10-23T00:40:19.354Z,100902.78
2023-10-23T00:42:45.838Z,100907.75
2023-10-23T00:45:12.359Z,100904.25
2023-10-23T00:47:38.985Z,100906.28
2023-10-23T00:50:06.043Z,100902.84
2023-10-23T00:52:32.609Z,100906.69
2023-10-23T00:54:59.632Z,100905.09
2023-10-23T00:57:26.254Z,100893.22
2023-10-23T00:59:52.915Z,100900.09
2023-10-23T01:02:19.422Z,100894.25
2023-10-23T01:04:46.121Z,100895.53
2023-10-23T01:07:12.728Z,100887.41
2023-10-23T01:09:39.336Z,100884.34
2023-10-23T01:12:06.429Z,100882.72
2023-10-23T01:14:32.935Z,100869.72
2023-10-23T01:16:59.412Z,100867.56
2023-10-23T01:19:25.947Z,100865.19
2023-10-23T01:21:52.436Z,100867.66
2023-10-23T01:24:22.966Z,100870.88
2023-10-23T01:26:49.729Z,100872.75
2023-10-23T01:29:16.395Z,100868.72
2023-10-23T01:31:42.934Z,100869.13
2023-10-23T01:34:09.410Z,100870.94
2023-10-23T01:36:36.886Z,100866.84
2023-10-23T01:39:03.792Z,100865.66
2023-10-23T01:41:30.275Z,100869.44
2023-10-23T01:43:56.803Z,100873.34
2023-10-23T01:46:23.374Z,100868.00
2023-10-23T01:48:49.890Z,100860.47
2023-10-23T01:51:16.468Z,100862.22
2023-10-23T01:53:42.920Z,100865.22
2023-10-23T01:56:09.598Z,100861.13
2023-10-23T01:58:36.468Z,100868.59
2023-10-23T02:01:03.075Z,100871.09
2023-10-23T02:03:31.394Z,100878.94
2023-10-23T02:05:58.019Z,100879.28
2023-10-23T02:08:25.278Z,100885.59
2023-10-23T02:10:52.271Z,100889.06
2023-10-23T02:13:20.174Z,100894.13
2023-10-23T02:15:46.643Z,100888.88
2023-10-23T02:18:13.211Z,100891.22
2023-10-23T02:20:39.776Z,100892.28
2023-10-23T02:23:06.267Z,100882.09
2023-10-23T02:25:32.778Z,100895.00
2023-10-23T02:27:59.275Z,100884.63
2023-10-23T02:30:25.957Z,100883.34
2023-10-23T02:32:52.440Z,100887.34
2023-10-23T02:35:19.031Z,100892.88
2023-10-23T02:37:45.604Z,100891.84
2023-10-23T02:40:12.935Z,100892.09
2023-10-23T02:42:39.592Z,100904.63
2023-10-23T02:45:07.003Z,100896.13
2023-10-23T02:47:33.497Z,100899.66
2023-10-23T02:49:59.947Z,100900.91
2023-10-23T02:52:26.779Z,100904.38
2023-10-23T02:54:53.326Z,100902.47
2023-10-23T02:57:19.992Z,100896.13
2023-10-23T02:59:49.371Z,100900.69
2023-10-23T03:02:17.741Z,100905.56
2023-10-23T03:04:44.243Z,100911.81
2023-10-23T03:07:10.751Z,100907.44
2023-10-23T03:09:38.161Z,100904.97
2023-10-23T03:12:05.778Z,100900.75
2023-10-23T03:14:32.792Z,100902.44
2023-10-23T03:16:59.308Z,100897.91
2023-10-23T03:19:26.691Z,100896.75
2023-10-23T03:21:53.477Z,100899.97
2023-10-23T03:24:20.213Z,100902.56
2023-10-23T03:26:46.839Z,100904.97
2023-10-23T03:29:13.267Z,100908.44
2023-10-23T03:31:39.926Z,100909.06
2023-10-23T03:34:06.500Z,100918.22
2023-10-23T03:36:33.117Z,100928.81
2023-10-23T03:38:59.588Z,100936.28
2023-10-23T03:41:26.988Z,100932.28
2023-10-23T03:43:53.478Z,100930.38
2023-10-23T03:46:20.039Z,100925.44
2023-10-23T03:48:46.648Z,100933.22
2023-10-23T03:51:13.171Z,100932.47
2023-10-23T03:53:39.620Z,100931.81
2023-10-23T03:56:07.281Z,100936.06
2023-10-23T03:58:33.838Z,100935.59
2023-10-23T04:01:00.542Z,100939.44
2023-10-23T04:03:27.822Z,100931.44
2023-10-23T04:05:54.405Z,100923.47
2023-10-23T04:08:21.036Z,100921.25
2023-10-23T04:10:49.149Z,100922.56
2023-10-23T04:13:16.768Z,100919.59
2023-10-23T04:15:57.178Z,100923.47
2023-10-23T04:18:25.366Z,100923.81
2023-10-23T04:21:01.435Z,100916.19
2023-10-23T04:23:27.883Z,100925.50
2023-10-23T04:25:55.970Z,100922.66
2023-10-23T04:28:23.114Z,100922.94
2023-10-23T04:30:49.633Z,100918.41
2023-10-23T04:33:17.963Z,100919.34
2023-10-23T04:35:45.920Z,100922.03
2023-10-23T04:38:13.241Z,100926.44
2023-10-23T04:40:39.695Z,100934.19
2023-10-23T04:43:06.197Z,100923.72
2023-10-23T04:45:32.759Z,100921.13
2023-10-23T04:47:59.414Z,100916.84
2023-10-23T04:50:25.998Z,100924.38
2023-10-23T04:52:52.494Z,100920.09
2023-10-23T04:55:18.939Z,100917.78
2023-10-23T04:57:45.559Z,100915.19
2023-10-23T05:00:12.799Z,100922.28
2023-10-23T05:02:39.309Z,100921.63
2023-10-23T05:05:07.371Z,100928.34
2023-10-23T05:07:33.870Z,100934.31
2023-10-23T05:10:03.235Z,100929.16
2023-10-23T05:12:29.836Z,100929.00
2023-10-23T05:14:56.299Z,100931.31
2023-10-23T05:17:25.119Z,100931.97
2023-10-23T05:19:51.579Z,100936.38
2023-10-23T05:22:18.013Z,100946.72
2023-10-23T05:24:48.429Z,100943.09
2023-10-23T05:27:15.682Z,100952.81
2023-10-23T05:29:42.332Z,100953.31
2023-10-23T05:32:08.770Z,100957.69
2023-10-23T05:34:35.426Z,100953.69
2023-10-23T05:37:02.203Z,100954.47
2023-10-23T05:39:29.360Z,100952.53
2023-10-23T05:41:55.968Z,100954.44
2023-10-23T05:44:22.513Z,100965.16
2023-10-23T05:46:49.082Z,100960.66
2023-10-23T05:49:15.580Z,100958.72
2023-10-23T05:51:42.273Z,100975.00
2023-10-23T05:54:10.717Z,100981.81
2023-10-23T05:56:37.431Z,100985.56
2023-10-23T05:59:04.738Z,100985.56
2023-10-23T06:01:31.531Z,100981.44
2023-10-23T06:03:58.189Z,100973.06
2023-10-23T06:06:24.918Z,100962.88
2023-10-23T06:08:51.564Z,100965.06
2023-10-23T06:11:18.199Z,100972.28
2023-10-23T06:13:44.631Z,100969.56
2023-10-23T06:16:11.143Z,100977.31
2023-10-23T06:18:39.511Z,100976.28
2023-10-23T06:21:07.256Z,100985.44
2023-10-23T06:23:38.608Z,100993.97
2023-10-23T06:26:05.796Z,100998.38
2023-10-23T06:28:33.358Z,100989.44
2023-10-23T06:31:10.718Z,100999.81
2023-10-23T06:33:39.882Z,100995.16
2023-10-23T06:36:10.334Z,100996.31
2023-10-23T06:38:37.916Z,101004.94
2023-10-23T06:41:08.212Z,101010.50
2023-10-23T06:43:35.648Z,101015.03
2023-10-23T06:46:04.754Z,101020.19
2023-10-23T06:48:32.386Z,101035.06
2023-10-23T06:50:59.977Z,101038.28
2023-10-23T06:53:26.529Z,101032.47
2023-10-23T06:55:54.541Z,101024.31
2023-10-23T06:58:21.925Z,101024.97
2023-10-23T07:00:49.301Z,101026.28
2023-10-23T07:03:16.265Z,101026.13
2023-10-23T07:05:43.085Z,101033.09
2023-10-23T07:08:09.784Z,101028.44
2023-10-23T07:10:36.928Z,101036.59
2023-10-23T07:13:11.088Z,101047.41
2023-10-23T07:15:42.109Z,101052.59
2023-10-23T07:18:11.371Z,101060.25
2023-10-23T07:20:37.983Z,101067.06
2023-10-23T07:23:04.434Z,101064.25
2023-10-23T07:25:30.891Z,101056.72
2023-10-23T07:27:57.352Z,101061.09
2023-10-23T07:30:25.495Z,101065.75
2023-10-23T07:32:52.279Z,101073.13
2023-10-23T07:35:18.798Z,101072.47
2023-10-23T07:37:45.313Z,101077.59
2023-10-23T07:40:12.383Z,101069.94
2023-10-23T07:42:39.125Z,101077.19
2023-10-23T07:45:06.396Z,101086.34
2023-10-23T07:47:32.955Z,101090.47
2023-10-23T07:49:59.477Z,101096.09
2023-10-23T07:52:26.048Z,101092.47
2023-10-23T07:54:52.773Z,101101.19
2023-10-23T07:57:19.291Z,101087.72
2023-10-23T07:59:45.791Z,101096.00
2023-10-23T08:02:12.526Z,101086.81
2023-10-23T08:04:39.242Z,101088.75
2023-10-23T08:07:05.906Z,101098.28
2023-10-23T08:09:32.444Z,101103.16
2023-10-23T08:11:59.044Z,101100.03
2023-10-23T08:14:25.569Z,101111.38
2023-10-23T08:16:53.442Z,101113.44
2023-10-23T08:19:21.446Z,101114.09
2023-10-23T08:21:49.199Z,101110.06
2023-10-23T08:24:16.469Z,101111.84
2023-10-23T08:26:47.920Z,101113.66
2023-10-23T08:29:16.413Z,101112.53
2023-10-23T08:31:43.568Z,101120.44
2023-10-23T08:34:10.707Z,101116.00
2023-10-23T08:36:37.530Z,101119.72
2023-10-23T08:39:04.785Z,101112.72
2023-10-23T08:41:32.615Z,101114.53
2023-10-23T08:43:59.864Z,101102.78
2023-10-23T08:46:28.061Z,101095.38
2023-10-23T08:48:55.112Z,101085.53
2023-10-23T08:51:22.092Z,101089.94
2023-10-23T08:54:09.221Z,101093.03
2023-10-23T08:56:38.929Z,101092.94
2023-10-23T08:59:06.137Z,101098.50
2023-10-23T09:01:37.924Z,101089.53
2023-10-23T09:04:06.786Z,101090.78
2023-10-23T09:06:37.587Z,101091.44
2023-10-23T09:09:07.493Z,101088.84
2023-10-23T09:11:42.759Z,101084.34
2023-10-23T09:14:10.372Z,101082.34
2023-10-23T09:16:37.870Z,101093.00
2023-10-23T09:19:05.032Z,101087.38
2023-10-23T09:21:34.432Z,101085.47
2023-10-23T09:24:04.956Z,101085.75
2023-10-23T09:26:32.672Z,101088.78
2023-10-23T09:28:59.493Z,101095.91
2023-10-23T09:31:26.377Z,101092.22
2023-10-23T09:33:53.043Z,101079.72
2023-10-23T09:36:21.927Z,101085.59
2023-10-23T09:38:59.893Z,101083.00
2023-10-23T09:41:28.711Z,101092.13
2023-10-23T09:43:57.558Z,101096.13
2023-10-23T09:46:26.837Z,101089.88
2023-10-23T09:49:00.621Z,101098.38
2023-10-23T09:51:40.437Z,101097.59
2023-10-23T09:54:23.436Z,101099.03
2023-10-23T09:56:54.124Z,101096.44
2023-10-23T09:59:30.988Z,101101.88
2023-10-23T10:02:02.217Z,101103.66
2023-10-23T10:04:34.367Z,101111.34
2023-10-23T10:07:25.102Z,101109.19
2023-10-23T10:09:53.374Z,101108.72
2023-10-23T10:12:22.023Z,101121.81
2023-10-23T10:14:49.280Z,101130.41
2023-10-23T10:17:22.937Z,101126.25
2023-10-23T10:19:51.010Z,101114.81
2023-10-23T10:22:36.926Z,101119.78
2023-10-23T10:25:06.366Z,101110.72
2023-10-23T10:27:33.875Z,101105.53
2023-10-23T10:30:03.111Z,101092.50
2023-10-23T10:32:29.622Z,101096.19
2023-10-23T10:34:57.949Z,101088.41
2023-10-23T10:37:29.998Z,101076.84
2023-10-23T10:39:56.532Z,101083.78
2023-10-23T10:42:29.519Z,101080.00
2023-10-23T10:45:01.060Z,101065.09
2023-10-23T10:47:37.162Z,101063.03
2023-10-23T10:50:05.286Z,101055.84
2023-10-23T10:52:36.578Z,101048.06
2023-10-23T10:55:06.064Z,101058.47
2023-10-23T10:57:33.039Z,101050.28
2023-10-23T11:00:00.247Z,101045.69
2023-10-23T11:02:27.362Z,101036.66
2023-10-23T11:04:53.837Z,101028.97
2023-10-23T11:07:28.025Z,101020.16
2023-10-23T11:09:55.263Z,101005.66
2023-10-23T11:12:22.436Z,100997.03
2023-10-23T11:14:49.040Z,100997.22
2023-10-23T11:17:16.661Z,101005.03
2023-10-23T11:19:44.400Z,101000.72
2023-10-23T11:22:13.188Z,101000.84
2023-10-23T11:24:40.524Z,101006.63
2023-10-23T11:27:08.288Z,101005.34
2023-10-23T11:29:45.090Z,101009.94
2023-10-23T11:32:14.504Z,101004.78
2023-10-23T11:34:42.182Z,101009.06
2023-10-23T11:37:11.314Z,101015.50
2023-10-23T11:39:40.246Z,101010.38
2023-10-23T11:42:07.478Z,101008.38
2023-10-23T11:44:35.903Z,101013.03
2023-10-23T11:47:07.158Z,101017.44
2023-10-23T11:49:34.237Z,101014.63
2023-10-23T11:52:02.205Z,101008.41
2023-10-23T11:54:29.574Z,101006.75
2023-10-23T11:56:59.142Z,101001.19
2023-10-23T11:59:29.062Z,101014.81
2023-10-23T12:01:56.494Z,101001.19
2023-10-23T12:04:23.880Z,100994.75
2023-10-23T12:06:50.633Z,100990.72
2023-10-23T12:09:17.274Z,100977.97
2023-10-23T12:11:43.829Z,100980.31
2023-10-23T12:14:10.368Z,100985.09
2023-10-23T12:16:37.032Z,100983.63
2023-10-23T12:19:04.584Z,100984.44
2023-10-23T12:21:31.098Z,100979.38
2023-10-23T12:23:57.603Z,100975.16
2023-10-23T12:26:25.066Z,100977.94
2023-10-23T12:28:51.822Z,100976.22
2023-10-23T12:31:23.912Z,100978.53
2023-10-23T12:33:51.895Z,100971.78
2023-10-23T12:36:18.577Z,100975.81
2023-10-23T12:38:45.058Z,100966.91
2023-10-23T12:41:11.692Z,100974.66
2023-10-23T12:43:39.002Z,100973.31
2023-10-23T12:46:05.639Z,100975.75
2023-10-23T12:48:32.211Z,100974.31
2023-10-23T12:50:58.742Z,100976.81
2023-10-23T12:53:25.539Z,100973.31
2023-10-23T12:55:52.168Z,100966.22
2023-10-23T12:58:18.767Z,100977.16
2023-10-23T13:00:45.307Z,100974.28
2023-10-23T13:03:11.937Z,100968.00
2023-10-23T13:05:38.602Z,100960.06
2023-10-23T13:08:05.626Z,100956.47
2023-10-23T13:10:32.243Z,100952.69
2023-10-23T13:12:58.781Z,100951.59
2023-10-23T13:15:25.899Z,100947.09
2023-10-23T13:17:55.051Z,100954.75
2023-10-23T13:21:29.493Z,100955.34
2023-10-23T13:23:08.700Z,100952.66
2023-10-23T13:25:36.003Z,100940.63
2023-10-23T13:28:02.639Z,100945.13
2023-10-23T13:30:29.507Z,100941.88
2023-10-23T13:32:56.165Z,100941.56
2023-10-23T13:35:22.922Z,100929.16
2023-10-23T13:37:49.379Z,100929.16
2023-10-23T13:40:16.200Z,100922.03
2023-10-23T13:42:42.799Z,100926.38
2023-10-23T13:45:09.948Z,100916.00
2023-10-23T13:47:36.592Z,100919.59
2023-10-23T13:50:03.198Z,100917.09
2023-10-23T13:52:29.705Z,100913.69
2023-10-23T13:54:57.428Z,100911.91
2023-10-23T13:57:25.637Z,100902.38
2023-10-23T13:59:52.106Z,100895.25
2023-10-23T14:02:18.607Z,100895.97
2023-10-23T14:04:45.317Z,100899.47
2023-10-23T14:07:13.708Z,100893.47
2023-10-23T14:09:46.178Z,100902.91
2023-10-23T14:12:15.656Z,100901.97
2023-10-23T14:14:42.238Z,100901.97
2023-10-23T14:17:09.069Z,100903.63
2023-10-23T14:19:46.503Z,100905.25
2023-10-23T14:22:15.326Z,100904.13
2023-10-23T14:24:42.174Z,100903.75
2023-10-23T14:27:10.285Z,100894.06
2023-10-23T14:29:37.179Z,100898.28
2023-10-23T14:32:03.939Z,100893.06
2023-10-23T14:34:30.559Z,100896.38
2023-10-23T14:36:57.222Z,100890.38
2023-10-23T14:39:27.809Z,100892.00
2023-10-23T14:41:55.743Z,100897.00
2023-10-23T14:44:24.482Z,100887.22
2023-10-23T14:46:51.867Z,100896.53
2023-10-23T14:49:19.069Z,100884.34
2023-10-23T14:51:45.638Z,100885.22
2023-10-23T14:54:12.951Z,100880.91
2023-10-23T14:56:39.554Z,100883.41
2023-10-23T14:59:11.535Z,100894.53
2023-10-23T15:01:39.017Z,100887.38
2023-10-23T15:04:06.000Z,100887.06
2023-10-23T15:06:32.605Z,100883.25
2023-10-23T15:08:59.782Z,100887.44
2023-10-23T15:11:26.536Z,100896.88
2023-10-23T15:13:55.803Z,100902.91
2023-10-23T15:16:22.706Z,100889.06
2023-10-23T15:18:51.647Z,100883.84
2023-10-23T15:21:18.217Z,100883.84
2023-10-23T15:23:44.831Z,100892.66
2023-10-23T15:26:11.350Z,100880.47
2023-10-23T15:28:39.195Z,100882.88
2023-10-23T15:31:06.931Z,100886.16
2023-10-23T15:33:36.361Z,100886.88
2023-10-23T15:36:03.585Z,100887.69
2023-10-23T15:38:31.083Z,100893.69
2023-10-23T15:41:11.198Z,100894.50
2023-10-23T15:43:39.240Z,100891.72
2023-10-23T15:46:14.589Z,100890.63
2023-10-23T15:48:41.897Z,100891.34
2023-10-23T15:51:08.812Z,100903.53
2023-10-23T15:53:35.740Z,100910.16
2023-10-23T15:56:02.223Z,100907.38
2023-10-23T15:58:29.622Z,100906.19
2023-10-23T16:00:58.111Z,100892.16
2023-10-23T16:03:25.078Z,100879.06
2023-10-23T16:05:52.370Z,100859.84
2023-10-23T16:08:19.030Z,100855.25
2023-10-23T16:10:50.453Z,100857.06
2023-10-23T16:13:18.406Z,100865.94
2023-10-23T16:15:46.159Z,100864.22
2023-10-23T16:18:14.041Z,100871.75
2023-10-23T16:20:43.256Z,100876.94
2023-10-23T16:23:10.814Z,100878.38
2023-10-23T16:25:38.500Z,100882.78
2023-10-23T16:28:05.656Z,100887.97
2023-10-23T16:30:32.204Z,100893.06
2023-10-23T16:32:58.753Z,100892.97
2023-10-23T16:35:26.170Z,100893.91
2023-10-23T16:37:53.340Z,100897.97
2023-10-23T16:40:20.195Z,100899.78
2023-10-23T16:42:48.289Z,100913.47
2023-10-23T16:45:15.268Z,100912.47
2023-10-23T16:47:41.902Z,100922.81
2023-10-23T16:50:09.046Z,100906.97
2023-10-23T16:52:36.632Z,100899.81
2023-10-23T16:55:05.770Z,100894.38
2023-10-23T16:57:33.833Z,100886.41
2023-10-23T17:00:00.540Z,100889.69
2023-10-23T17:02:27.358Z,100890.00
2023-10-23T17:04:54.998Z,100894.50
2023-10-23T17:07:21.773Z,100893.97
2023-10-23T17:09:48.377Z,100897.59
2023-10-23T17:12:15.218Z,100902.59
2023-10-23T17:14:41.872Z,100900.69
2023-10-23T17:17:09.730Z,100928.50
2023-10-23T17:19:36.483Z,100954.44
2023-10-23T17:22:03.189Z,100963.19
2023-10-23T17:24:29.951Z,100949.22
2023-10-23T17:26:56.481Z,100939.41
2023-10-23T17:29:23.046Z,100952.97
2023-10-23T17:31:51.318Z,100948.13
2023-10-23T17:34:19.303Z,100942.47
2023-10-23T17:36:45.764Z,100949.03
2023-10-23T17:39:12.945Z,100946.03
2023-10-23T17:41:39.397Z,100940.84
2023-10-23T17:44:06.651Z,100945.38
2023-10-23T17:46:36.339Z,100956.88
2023-10-23T17:51:29.923Z,100936.78
2023-10-23T17:54:04.952Z,100950.31
2023-10-23T17:56:36.695Z,100967.72
2023-10-23T17:59:03.531Z,100952.34
2023-10-23T18:01:30.165Z,100941.31
2023-10-23T18:03:56.886Z,100949.97
2023-10-23T18:06:23.496Z,100937.22
2023-10-23T18:08:49.990Z,100931.13
2023-10-23T18:11:16.864Z,100937.44
2023-10-23T18:13:44.859Z,100935.31
2023-10-23T18:16:14.967Z,100916.59
2023-10-23T18:18:41.716Z,100917.19
2023-10-23T18:21:08.306Z,100935.56
2023-10-23T18:23:35.228Z,100935.13
2023-10-23T18:26:01.794Z,100933.78
2023-10-23T18:28:29.225Z,100938.63
2023-10-23T18:30:56.705Z,100934.81
2023-10-23T18:33:24.401Z,100922.19
2023-10-23T18:35:51.183Z,100911.06
2023-10-23T18:38:18.001Z,100913.06
2023-10-23T18:40:44.696Z,100911.72
2023-10-23T18:43:11.332Z,100896.72
2023-10-23T18:45:42.941Z,100885.09
2023-10-23T18:48:10.650Z,100908.34
2023-10-23T18:50:37.404Z,100890.06
2023-10-23T18:53:04.050Z,100897.28
2023-10-23T18:55:30.550Z,100903.03
2023-10-23T18:57:57.270Z,100903.69
2023-10-23T19:00:23.894Z,100927.28
2023-10-23T19:02:50.899Z,100925.09
2023-10-23T19:05:17.578Z,100924.00
2023-10-23T19:07:44.066Z,100914.66
2023-10-23T19:10:11.028Z,100911.25
2023-10-23T19:12:37.597Z,100902.34
2023-10-23T19:15:04.406Z,100898.19
2023-10-23T19:17:40.415Z,100890.06
2023-10-23T19:20:09.471Z,100882.06
2023-10-23T19:22:37.005Z,100880.38
2023-10-23T19:25:05.085Z,100880.25
2023-10-23T19:27:32.952Z,100884.75
2023-10-23T19:30:00.110Z,100900.00
2023-10-23T19:32:27.842Z,100897.63
2023-10-23T19:34:54.698Z,100892.66
2023-10-23T19:37:21.860Z,100896.16
2023-10-23T19:39:48.688Z,100896.81
2023-10-23T19:42:19.585Z,100911.25
2023-10-23T19:44:46.601Z,100913.53
2023-10-23T19:47:16.290Z,100901.00
2023-10-23T19:49:44.084Z,100900.31
2023-10-23T19:52:14.152Z,100892.44
2023-10-23T19:54:41.959Z,100899.41
2023-10-23T19:57:11.165Z,100908.66
2023-10-23T19:59:39.154Z,100905.19
2023-10-23T20:02:06.167Z,100895.38
2023-10-23T20:04:33.101Z,100905.50
2023-10-23T20:07:00.453Z,100894.22
2023-10-23T20:09:27.237Z,100876.44
2023-10-23T20:11:53.943Z,100879.16
2023-10-23T20:14:20.638Z,100892.88
2023-10-23T20:16:47.390Z,100880.38
2023-10-23T20:19:14.451Z,100873.03
2023-10-23T20:21:41.076Z,100874.66
2023-10-23T20:24:08.014Z,100868.53
2023-10-23T20:26:34.524Z,100857.84
2023-10-23T20:29:01.138Z,100851.97
2023-10-23T20:31:27.711Z,100851.41
2023-10-23T20:33:54.559Z,100849.63
2023-10-23T20:36:21.173Z,100867.84
2023-10-23T20:38:48.128Z,100881.41
2023-10-23T20:41:19.322Z,100887.03
2023-10-23T20:43:47.110Z,100886.69
2023-10-23T20:46:14.590Z,100880.16
2023-10-23T20:48:41.156Z,100891.53
2023-10-23T20:51:08.444Z,100890.66
2023-10-23T20:53:34.931Z,100889.97
2023-10-23T20:56:04.984Z,100879.28
2023-10-23T20:58:32.153Z,100882.41
2023-10-23T21:01:05.115Z,100887.72
2023-10-23T21:03:32.032Z,100882.41
2023-10-23T21:06:05.358Z,100884.88
2023-10-23T21:08:36.874Z,100887.03
2023-10-23T21:11:05.438Z,100891.34
2023-10-23T21:13:32.284Z,100871.25
2023-10-23T21:15:58.806Z,100879.94
2023-10-23T21:18:25.299Z,100868.78
2023-10-23T21:20:54.487Z,100864.41
2023-10-23T21:23:21.098Z,100856.63
2023-10-23T21:25:47.593Z,100849.63
2023-10-23T21:28:14.128Z,100832.28
2023-10-23T21:30:40.614Z,100830.03
2023-10-23T21:33:07.536Z,100834.97
2023-10-23T21:35:34.017Z,100839.72
2023-10-23T21:38:00.569Z,100845.22
2023-10-23T21:40:27.076Z,100840.25
2023-10-23T21:42:53.568Z,100851.44
2023-10-23T21:45:20.042Z,100848.84
2023-10-23T21:47:46.628Z,100852.09
2023-10-23T21:50:13.342Z,100844.44
2023-10-23T21:52:40.216Z,100850.97
2023-10-23T21:55:18.723Z,100857.25
2023-10-23T21:57:46.331Z,100866.53
2023-10-23T22:00:22.494Z,100867.75
2023-10-23T22:02:49.404Z,100868.78
2023-10-23T22:05:16.118Z,100864.41
2023-10-23T22:07:43.021Z,100860.88
2023-10-23T22:10:10.478Z,100865.84
2023-10-23T22:12:37.337Z,100871.16
2023-10-23T22:15:04.820Z,100862.00
2023-10-23T22:17:31.454Z,100860.44
2023-10-23T22:19:58.757Z,100871.00
2023-10-23T22:22:25.988Z,100864.13
2023-10-23T22:24:52.475Z,100854.25
2023-10-23T22:27:19.018Z,100853.44
2023-10-23T22:29:45.464Z,100857.03
2023-10-23T22:32:11.956Z,100857.50
2023-10-23T22:34:38.611Z,100867.38
2023-10-23T22:38:02.907Z,100868.88
2023-10-23T22:39:51.667Z,100853.88
2023-10-23T22:42:18.104Z,100839.22
2023-10-23T22:44:44.685Z,100839.34
2023-10-23T22:47:11.302Z,100844.31
2023-10-23T22:49:38.730Z,100845.78
2023-10-23T22:52:06.011Z,100849.06
2023-10-23T22:54:32.955Z,100834.06
2023-10-23T22:57:03.026Z,100826.84
2023-10-23T22:59:29.756Z,100823.91
2023-10-23T23:01:56.462Z,100828.44
2023-10-23T23:04:23.533Z,100842.19
2023-10-23T23:06:52.513Z,100846.00
2023-10-23T23:09:19.648Z,100846.69
2023-10-23T23:11:46.778Z,100849.97
2023-10-23T23:14:13.614Z,100857.06
2023-10-23T23:16:41.420Z,100855.94
2023-10-23T23:19:11.215Z,100847.38
2023-10-23T23:21:38.985Z,100847.16
2023-10-23T23:24:05.960Z,100844.09
2023-10-23T23:26:32.512Z,100845.81
2023-10-23T23:28:58.968Z,100851.41
2023-10-23T23:31:25.538Z,100853.25
2023-10-23T23:33:52.074Z,100847.25
2023-10-23T23:36:18.536Z,100838.47
2023-10-23T23:38:44.982Z,100832.94
2023-10-23T23:41:11.517Z,100839.03
2023-10-23T23:43:38.025Z,100841.88
2023-10-23T23:46:04.586Z,100839.81
2023-10-23T23:48:31.117Z,100840.84
2023-10-23T23:50:57.560Z,100830.69
2023-10-23T23:53:24.085Z,100825.97
2023-10-23T23:55:50.826Z,100825.28
2023-10-23T23:58:17.437Z,100811.66
